Time;durP1;ratioP1;P1;durP2;ratioP2;P2;SDS_P1;SDS_P2;PMS_P1;PMS_P2;Temp;Humidity;BMP_temperature;BMP_pressure;BME280_temperature;BME280_humidity;BME280_pressure;Samples;Min_cycle;Max_cycle;Signal;HPM_P1;HPM_P2
2021/07/15 00:02:01;;;;;;;;;;;25.40;53.30;;;;;;5087562;28;19916;-62
2021/07/15 00:04:27;;;;;;;;;;;25.40;53.30;;;;;;5087444;28;19918;-62
2021/07/15 00:06:52;;;;;;;;;;;25.40;53.40;;;;;;5085783;28;19947;-62
2021/07/15 00:09:19;;;;;;;;;;;25.40;53.30;;;;;;5087427;28;20007;-62
2021/07/15 00:11:46;;;;;;;;;;;25.40;53.30;;;;;;5087541;28;19923;-62
2021/07/15 00:14:12;;;;;;;;;;;25.40;53.30;;;;;;5082826;28;20622;-62
2021/07/15 00:16:38;;;;;;;;;;;25.40;53.30;;;;;;5087287;28;19912;-62
2021/07/15 00:19:04;;;;;;;;;;;25.40;53.40;;;;;;5087118;28;19986;-62
2021/07/15 00:21:30;;;;;;;;;;;25.40;53.40;;;;;;5087790;28;19931;-62
2021/07/15 00:23:55;;;;;;;;;;;25.30;53.30;;;;;;5087659;28;20219;-62
2021/07/15 00:26:22;;;;;;;;;;;25.40;53.30;;;;;;5086516;28;20015;-62
2021/07/15 00:28:48;;;;;;;;;;;25.30;53.30;;;;;;5086874;28;19934;-62
2021/07/15 00:31:14;;;;;;;;;;;25.30;53.30;;;;;;5087561;28;19911;-62
2021/07/15 00:33:39;;;;;;;;;;;25.30;53.30;;;;;;5092708;28;19928;-62
2021/07/15 00:36:05;;;;;;;;;;;25.30;53.30;;;;;;5085102;28;19908;-62
2021/07/15 00:38:31;;;;;;;;;;;25.30;53.30;;;;;;5085538;28;20019;-62
2021/07/15 00:40:56;;;;;;;;;;;25.30;53.30;;;;;;5086805;28;19923;-62
2021/07/15 00:43:23;;;;;;;;;;;25.30;53.30;;;;;;5078385;28;19931;-62
2021/07/15 00:45:48;;;;;;;;;;;25.30;53.30;;;;;;5087339;28;19920;-62
2021/07/15 00:48:14;;;;;;;;;;;25.30;53.30;;;;;;5086066;28;19927;-62
2021/07/15 00:50:40;;;;;;;;;;;25.30;53.30;;;;;;5086283;28;19912;-62
2021/07/15 00:53:06;;;;;;;;;;;25.20;53.30;;;;;;5095010;28;20042;-62
2021/07/15 00:55:37;;;;;;;;;;;25.20;53.30;;;;;;5086580;28;19998;-62
2021/07/15 00:58:03;;;;;;;;;;;25.20;53.30;;;;;;5085132;28;19916;-62
2021/07/15 01:00:29;;;;;;;;;;;25.20;53.30;;;;;;5087773;28;19976;-62
2021/07/15 01:02:56;;;;;;;;;;;25.20;53.30;;;;;;5087446;28;19951;-62
2021/07/15 01:05:23;;;;;;;;;;;25.20;53.30;;;;;;5086881;28;19915;-62
2021/07/15 01:07:49;;;;;;;;;;;25.20;53.30;;;;;;5085959;28;20360;-62
2021/07/15 01:10:16;;;;;;;;;;;25.20;53.30;;;;;;5088709;28;20030;-62
2021/07/15 01:12:47;;;;;;;;;;;25.20;53.30;;;;;;5080052;28;19908;-62
2021/07/15 01:15:17;;;;;;;;;;;25.20;53.30;;;;;;5083891;28;20015;-62
2021/07/15 01:18:01;;;;;;;;;;;25.20;53.40;;;;;;5081112;28;19916;-62
2021/07/15 01:20:27;;;;;;;;;;;25.20;53.30;;;;;;5081001;28;20311;-62
2021/07/15 01:23:02;;;;;;;;;;;25.10;53.30;;;;;;5088625;28;19916;-62
2021/07/15 01:25:33;;;;;;;;;;;25.10;53.30;;;;;;5070427;28;19923;-62
2021/07/15 01:28:05;;;;;;;;;;;25.10;53.30;;;;;;5074961;28;20033;-62
2021/07/15 01:30:37;;;;;;;;;;;25.10;53.30;;;;;;5068453;28;20250;-62
2021/07/15 01:33:06;;;;;;;;;;;25.10;53.30;;;;;;5091497;28;20411;-62
2021/07/15 01:35:36;;;;;;;;;;;25.10;53.30;;;;;;5093332;28;19915;-62
2021/07/15 01:38:03;;;;;;;;;;;25.10;53.30;;;;;;5084116;28;20269;-62
2021/07/15 01:40:33;;;;;;;;;;;25.10;53.30;;;;;;5085123;28;20002;-62
2021/07/15 01:43:01;;;;;;;;;;;25.10;53.30;;;;;;5087355;28;19908;-62
2021/07/15 01:45:27;;;;;;;;;;;25.10;53.40;;;;;;5085554;28;19926;-62
2021/07/15 01:47:52;;;;;;;;;;;25.10;53.30;;;;;;5084766;28;19915;-62
2021/07/15 01:50:18;;;;;;;;;;;25.10;53.40;;;;;;5085429;28;20369;-62
2021/07/15 01:52:44;;;;;;;;;;;25.10;53.40;;;;;;5083074;28;19977;-62
2021/07/15 01:55:10;;;;;;;;;;;25.10;53.40;;;;;;5087816;28;20251;-62
2021/07/15 01:57:37;;;;;;;;;;;25.10;53.40;;;;;;5081900;28;20646;-62
2021/07/15 02:00:05;;;;;;;;;;;25.10;53.40;;;;;;5084996;28;19974;-62
2021/07/15 02:02:31;;;;;;;;;;;25.10;53.40;;;;;;5087775;28;20006;-62
2021/07/15 02:04:57;;;;;;;;;;;25.00;53.30;;;;;;5092954;28;20378;-62
2021/07/15 02:07:24;;;;;;;;;;;25.10;53.40;;;;;;5089035;28;19923;-62
2021/07/15 02:09:50;;;;;;;;;;;25.10;53.40;;;;;;5088686;28;19992;-61
2021/07/15 02:12:17;;;;;;;;;;;25.10;53.40;;;;;;5088777;28;19934;-62
2021/07/15 02:14:44;;;;;;;;;;;25.10;53.40;;;;;;5089422;28;19927;-62
2021/07/15 02:17:10;;;;;;;;;;;25.00;53.30;;;;;;5093768;28;19913;-62
2021/07/15 02:19:36;;;;;;;;;;;25.00;53.40;;;;;;5088203;28;19916;-62
2021/07/15 02:22:02;;;;;;;;;;;25.00;53.40;;;;;;5085892;28;20420;-62
2021/07/15 02:24:28;;;;;;;;;;;25.00;53.30;;;;;;5088370;28;19912;-62
2021/07/15 02:26:54;;;;;;;;;;;25.00;53.40;;;;;;5090000;28;19927;-62
2021/07/15 02:29:20;;;;;;;;;;;25.00;53.40;;;;;;5087715;28;19926;-62
2021/07/15 02:31:51;;;;;;;;;;;25.00;53.40;;;;;;5088996;28;19965;-62
2021/07/15 02:34:43;;;;;;;;;;;25.00;53.90;;;;;;5089169;28;19912;-62
2021/07/15 02:37:09;;;;;;;;;;;25.00;53.40;;;;;;5089658;28;20376;-62
2021/07/15 02:39:35;;;;;;;;;;;24.90;53.40;;;;;;5087290;28;20285;-62
2021/07/15 02:42:01;;;;;;;;;;;24.90;53.40;;;;;;5083081;28;19966;-62
2021/07/15 02:44:27;;;;;;;;;;;24.90;53.40;;;;;;5088513;28;19912;-62
2021/07/15 02:46:52;;;;;;;;;;;24.90;53.30;;;;;;5067813;28;19986;-61
2021/07/15 02:49:18;;;;;;;;;;;24.90;53.40;;;;;;5086454;28;19908;-62
2021/07/15 02:51:43;;;;;;;;;;;24.90;53.40;;;;;;5087502;28;19927;-61
2021/07/15 02:54:09;;;;;;;;;;;24.90;53.40;;;;;;5088915;28;19912;-62
2021/07/15 02:56:44;;;;;;;;;;;24.90;53.40;;;;;;5087133;28;20310;-62
2021/07/15 02:59:30;;;;;;;;;;;24.90;53.40;;;;;;5087293;28;19915;-61
2021/07/15 03:02:06;;;;;;;;;;;24.90;53.40;;;;;;5087463;28;19916;-62
2021/07/15 03:04:36;;;;;;;;;;;24.90;53.40;;;;;;5086502;28;19912;-62
2021/07/15 03:07:02;;;;;;;;;;;24.90;53.40;;;;;;5088272;28;19958;-62
2021/07/15 03:09:29;;;;;;;;;;;24.90;53.40;;;;;;5067937;28;20189;-62
2021/07/15 03:12:00;;;;;;;;;;;24.90;53.40;;;;;;5087735;28;19947;-62
2021/07/15 03:14:29;;;;;;;;;;;24.90;53.50;;;;;;5067969;28;19912;-62
2021/07/15 03:16:55;;;;;;;;;;;24.90;53.50;;;;;;5088141;28;20198;-62
2021/07/15 03:19:22;;;;;;;;;;;24.90;53.50;;;;;;5087098;28;20265;-61
2021/07/15 03:21:47;;;;;;;;;;;24.90;53.50;;;;;;5087206;28;19916;-61
2021/07/15 03:24:15;;;;;;;;;;;24.80;53.40;;;;;;5087425;28;19965;-62
2021/07/15 03:26:42;;;;;;;;;;;24.80;53.40;;;;;;5088124;28;19916;-62
2021/07/15 03:29:08;;;;;;;;;;;24.80;53.40;;;;;;5085042;28;19918;-62
2021/07/15 03:31:34;;;;;;;;;;;24.80;53.40;;;;;;5072736;28;20369;-62
2021/07/15 03:34:00;;;;;;;;;;;24.80;53.40;;;;;;5086074;28;19950;-61
2021/07/15 03:36:25;;;;;;;;;;;24.80;53.40;;;;;;5086824;28;19911;-61
2021/07/15 03:38:52;;;;;;;;;;;24.80;53.40;;;;;;5086264;28;19908;-61
2021/07/15 03:41:18;;;;;;;;;;;24.80;53.40;;;;;;5073187;28;20388;-61
2021/07/15 03:43:45;;;;;;;;;;;24.80;53.40;;;;;;5081185;28;19920;-61
2021/07/15 03:46:11;;;;;;;;;;;24.80;53.40;;;;;;5089253;28;19916;-61
2021/07/15 03:48:37;;;;;;;;;;;24.80;53.40;;;;;;5084809;28;19927;-61
2021/07/15 03:51:06;;;;;;;;;;;24.80;53.40;;;;;;5089000;28;20606;-61
2021/07/15 03:53:32;;;;;;;;;;;24.80;53.40;;;;;;5096977;28;20306;-62
2021/07/15 03:55:58;;;;;;;;;;;24.80;53.50;;;;;;5094547;28;20423;-61
2021/07/15 03:58:24;;;;;;;;;;;24.80;54.00;;;;;;5087062;28;19912;-62
2021/07/15 04:00:50;;;;;;;;;;;24.80;53.50;;;;;;5092334;28;20306;-62
2021/07/15 04:03:19;;;;;;;;;;;24.70;53.40;;;;;;5086305;28;19986;-62
2021/07/15 04:05:45;;;;;;;;;;;24.70;53.40;;;;;;5087797;28;19939;-62
2021/07/15 04:08:11;;;;;;;;;;;24.80;53.50;;;;;;5086155;28;19928;-62
2021/07/15 04:10:38;;;;;;;;;;;24.80;53.50;;;;;;5087659;28;20014;-62
2021/07/15 04:13:04;;;;;;;;;;;24.80;53.50;;;;;;5088080;28;19935;-62
2021/07/15 04:15:55;;;;;;;;;;;24.80;53.50;;;;;;5088159;28;20205;-62
2021/07/15 04:18:33;;;;;;;;;;;24.70;53.50;;;;;;5084777;28;19939;-63
2021/07/15 04:20:59;;;;;;;;;;;24.70;53.50;;;;;;5066292;28;19911;-62
2021/07/15 04:23:26;;;;;;;;;;;24.70;53.50;;;;;;5081291;28;20361;-62
2021/07/15 04:25:53;;;;;;;;;;;24.70;53.50;;;;;;5081229;28;20266;-62
2021/07/15 04:28:19;;;;;;;;;;;24.70;53.50;;;;;;5080826;28;20274;-61
2021/07/15 04:30:46;;;;;;;;;;;24.70;53.50;;;;;;5084491;28;20304;-62
2021/07/15 04:33:11;;;;;;;;;;;24.70;53.50;;;;;;5085676;28;19954;-62
2021/07/15 04:35:37;;;;;;;;;;;24.70;53.50;;;;;;5086353;28;19911;-61
2021/07/15 04:38:04;;;;;;;;;;;24.70;53.50;;;;;;5084689;28;20083;-61
2021/07/15 04:40:30;;;;;;;;;;;24.70;53.50;;;;;;5082395;28;20497;-61
2021/07/15 04:43:01;;;;;;;;;;;24.70;54.00;;;;;;5085020;28;20279;-61
2021/07/15 04:45:27;;;;;;;;;;;24.70;53.50;;;;;;5080459;28;20011;-61
2021/07/15 04:47:54;;;;;;;;;;;24.70;53.50;;;;;;5084871;28;20301;-61
2021/07/15 04:50:21;;;;;;;;;;;24.70;53.50;;;;;;5083885;28;19992;-61
2021/07/15 04:52:49;;;;;;;;;;;24.70;53.50;;;;;;5083824;28;19937;-61
2021/07/15 04:55:16;;;;;;;;;;;24.70;53.50;;;;;;5090184;28;19908;-61
2021/07/15 04:57:41;;;;;;;;;;;24.70;53.40;;;;;;5085556;28;19998;-61
2021/07/15 05:00:11;;;;;;;;;;;24.60;53.40;;;;;;5088890;28;20351;-55
2021/07/15 05:02:37;;;;;;;;;;;24.70;53.50;;;;;;5086642;28;19916;-64
2021/07/15 05:05:05;;;;;;;;;;;24.70;53.60;;;;;;5087385;28;20278;-64
2021/07/15 05:07:32;;;;;;;;;;;24.70;53.50;;;;;;5087884;28;19916;-64
2021/07/15 05:09:57;;;;;;;;;;;24.70;53.50;;;;;;5084385;28;19935;-63
2021/07/15 05:12:23;;;;;;;;;;;24.80;53.30;;;;;;5086157;28;19912;-63
2021/07/15 05:14:48;;;;;;;;;;;24.80;53.20;;;;;;5085354;28;20339;-64
2021/07/15 05:17:14;;;;;;;;;;;24.80;53.20;;;;;;5087179;28;19998;-64
2021/07/15 05:19:40;;;;;;;;;;;24.80;53.10;;;;;;5092540;28;19923;-63
2021/07/15 05:22:06;;;;;;;;;;;24.80;53.00;;;;;;5087596;28;19912;-63
2021/07/15 05:24:32;;;;;;;;;;;24.90;53.10;;;;;;5085991;28;19919;-63
2021/07/15 05:26:57;;;;;;;;;;;24.90;52.90;;;;;;5091957;28;19918;-64
2021/07/15 05:29:23;;;;;;;;;;;25.00;52.80;;;;;;5077963;28;19967;-63
2021/07/15 05:31:48;;;;;;;;;;;25.00;52.80;;;;;;5089028;28;19931;-64
2021/07/15 05:34:14;;;;;;;;;;;25.00;52.80;;;;;;5086491;28;19953;-63
2021/07/15 05:36:40;;;;;;;;;;;25.10;52.70;;;;;;5085223;28;20287;-64
2021/07/15 05:39:06;;;;;;;;;;;25.10;52.60;;;;;;5065146;28;19908;-64
2021/07/15 05:41:31;;;;;;;;;;;25.10;52.60;;;;;;5095508;28;20018;-63
2021/07/15 05:43:57;;;;;;;;;;;25.10;52.50;;;;;;5091037;28;19947;-64
2021/07/15 05:46:22;;;;;;;;;;;24.90;51.10;;;;;;5089876;28;19980;-63
2021/07/15 05:48:48;;;;;;;;;;;24.60;51.30;;;;;;5089766;28;19976;-64
2021/07/15 05:51:14;;;;;;;;;;;24.50;51.90;;;;;;5087780;28;20098;-64
2021/07/15 05:53:39;;;;;;;;;;;24.30;51.70;;;;;;5088426;28;20316;-64
2021/07/15 05:56:05;;;;;;;;;;;24.10;51.90;;;;;;5091121;28;20404;-63
2021/07/15 05:58:30;;;;;;;;;;;23.90;52.40;;;;;;5088988;28;19959;-64
2021/07/15 06:00:56;;;;;;;;;;;23.90;52.80;;;;;;5089405;28;19919;-63
2021/07/15 06:03:21;;;;;;;;;;;23.80;52.90;;;;;;5087744;28;20011;-63
2021/07/15 06:05:47;;;;;;;;;;;23.70;53.20;;;;;;5091149;28;19911;-63
2021/07/15 06:08:12;;;;;;;;;;;23.60;53.30;;;;;;5088600;28;19956;-63
2021/07/15 06:10:38;;;;;;;;;;;23.50;53.50;;;;;;5089724;28;19947;-62
2021/07/15 06:13:03;;;;;;;;;;;23.50;53.40;;;;;;5089660;28;19958;-63
2021/07/15 06:15:29;;;;;;;;;;;23.40;53.60;;;;;;5091717;28;19912;-64
2021/07/15 06:17:54;;;;;;;;;;;23.30;53.30;;;;;;5090071;28;19907;-64
2021/07/15 06:20:20;;;;;;;;;;;23.10;53.40;;;;;;5089536;28;19908;-64
2021/07/15 06:22:46;;;;;;;;;;;23.10;53.90;;;;;;5092338;28;20300;-63
2021/07/15 06:25:12;;;;;;;;;;;23.00;53.80;;;;;;5086037;28;20082;-64
2021/07/15 06:27:38;;;;;;;;;;;22.90;54.20;;;;;;5089528;28;20426;-62
2021/07/15 06:30:08;;;;;;;;;;;22.80;54.40;;;;;;5090261;28;19912;-63
2021/07/15 06:32:34;;;;;;;;;;;22.70;54.80;;;;;;5089358;28;20002;-63
2021/07/15 06:34:59;;;;;;;;;;;22.70;54.40;;;;;;5071041;28;20002;-64
2021/07/15 06:37:27;;;;;;;;;;;22.60;54.70;;;;;;5089118;28;20497;-63
2021/07/15 06:39:52;;;;;;;;;;;22.60;55.00;;;;;;5088423;28;19944;-62
2021/07/15 06:42:18;;;;;;;;;;;22.60;55.30;;;;;;5089487;28;19954;-63
2021/07/15 06:44:43;;;;;;;;;;;22.60;55.40;;;;;;5089490;28;19950;-63
2021/07/15 06:47:09;;;;;;;;;;;22.50;55.60;;;;;;5090649;28;19957;-63
2021/07/15 06:49:35;;;;;;;;;;;22.50;56.20;;;;;;5088396;28;19926;-63
2021/07/15 06:52:01;;;;;;;;;;;22.50;56.20;;;;;;5088898;28;20340;-65
2021/07/15 06:54:27;;;;;;;;;;;22.70;56.10;;;;;;5089428;28;19923;-64
2021/07/15 06:56:53;;;;;;;;;;;22.90;55.60;;;;;;5088501;28;19912;-64
2021/07/15 06:59:18;;;;;;;;;;;23.00;55.30;;;;;;5086613;28;20353;-66
2021/07/15 07:01:44;;;;;;;;;;;23.10;54.80;;;;;;5070105;28;20019;-65
2021/07/15 07:04:09;;;;;;;;;;;23.20;54.50;;;;;;5092130;28;19919;-64
2021/07/15 07:06:35;;;;;;;;;;;23.30;54.20;;;;;;5087959;28;20402;-64
2021/07/15 07:09:00;;;;;;;;;;;23.40;54.00;;;;;;5088866;28;19918;-63
2021/07/15 07:11:26;;;;;;;;;;;23.50;53.90;;;;;;5071299;28;19930;-65
2021/07/15 07:13:51;;;;;;;;;;;23.50;53.80;;;;;;5086573;28;20068;-65
2021/07/15 07:16:17;;;;;;;;;;;23.60;54.20;;;;;;5088345;28;20319;-65
2021/07/15 07:18:42;;;;;;;;;;;23.60;53.70;;;;;;5087939;28;19912;-64
2021/07/15 07:21:07;;;;;;;;;;;23.70;53.70;;;;;;5087615;28;19916;-64
2021/07/15 07:23:33;;;;;;;;;;;23.70;53.60;;;;;;5089645;28;20296;-65
2021/07/15 07:25:59;;;;;;;;;;;23.70;53.40;;;;;;5067304;28;19980;-63
2021/07/15 07:28:26;;;;;;;;;;;23.80;53.40;;;;;;5086827;28;20378;-65
2021/07/15 07:30:52;;;;;;;;;;;23.80;53.30;;;;;;5089140;28;19922;-65
2021/07/15 07:33:17;;;;;;;;;;;23.90;53.30;;;;;;5086399;28;19929;-66
2021/07/15 07:35:42;;;;;;;;;;;23.90;53.20;;;;;;5086476;28;19916;-65
2021/07/15 07:38:10;;;;;;;;;;;23.90;53.10;;;;;;5088349;28;20385;-64
2021/07/15 07:40:35;;;;;;;;;;;23.90;53.00;;;;;;5088624;28;19994;-64
2021/07/15 07:43:01;;;;;;;;;;;24.00;53.00;;;;;;5087180;28;20014;-65
2021/07/15 07:45:26;;;;;;;;;;;24.00;52.80;;;;;;5097568;28;20013;-65
2021/07/15 07:47:52;;;;;;;;;;;24.00;52.80;;;;;;5092432;28;19916;-66
2021/07/15 07:50:18;;;;;;;;;;;24.10;52.80;;;;;;5092463;28;19923;-65
2021/07/15 07:52:44;;;;;;;;;;;24.10;52.70;;;;;;5096474;28;19946;-66
2021/07/15 07:55:10;;;;;;;;;;;24.20;52.70;;;;;;5097623;28;20220;-66
2021/07/15 07:57:35;;;;;;;;;;;24.20;52.70;;;;;;5084980;28;19939;-66
2021/07/15 08:00:03;;;;;;;;;;;24.20;52.70;;;;;;5089290;28;19908;-65
2021/07/15 08:02:28;;;;;;;;;;;24.20;52.60;;;;;;5102774;28;20696;-64
2021/07/15 08:04:54;;;;;;;;;;;24.20;52.50;;;;;;5104890;28;19918;-65
2021/07/15 08:07:19;;;;;;;;;;;24.20;52.50;;;;;;5107848;28;19915;-66
2021/07/15 08:09:45;;;;;;;;;;;24.20;52.40;;;;;;5086934;28;19969;-65
2021/07/15 08:12:15;;;;;;;;;;;24.20;52.40;;;;;;5087574;28;20308;-65
2021/07/15 08:14:40;;;;;;;;;;;24.20;52.30;;;;;;5073367;28;19912;-66
2021/07/15 08:17:05;;;;;;;;;;;24.20;52.40;;;;;;5100895;28;19965;-66
2021/07/15 08:19:31;;;;;;;;;;;24.20;52.30;;;;;;5087861;28;19926;-65
2021/07/15 08:21:56;;;;;;;;;;;24.30;52.50;;;;;;5087045;28;19930;-65
2021/07/15 08:24:22;;;;;;;;;;;24.30;52.50;;;;;;5087401;28;20311;-66
2021/07/15 08:26:48;;;;;;;;;;;24.30;52.50;;;;;;5094124;28;19923;-65
2021/07/15 08:29:14;;;;;;;;;;;24.30;52.60;;;;;;5067465;28;20013;-66
2021/07/15 08:31:40;;;;;;;;;;;24.30;52.60;;;;;;5088467;28;19961;-65
2021/07/15 08:34:05;;;;;;;;;;;24.30;52.60;;;;;;5087505;28;19912;-65
2021/07/15 08:36:31;;;;;;;;;;;24.30;52.60;;;;;;5095790;28;19914;-65
2021/07/15 08:38:58;;;;;;;;;;;24.30;52.50;;;;;;5088334;28;20351;-64
2021/07/15 08:41:23;;;;;;;;;;;24.30;52.50;;;;;;5087449;28;19908;-65
2021/07/15 08:43:49;;;;;;;;;;;24.30;52.40;;;;;;5081641;28;19924;-66
2021/07/15 08:46:15;;;;;;;;;;;24.30;52.40;;;;;;5088092;28;19919;-65
2021/07/15 08:48:43;;;;;;;;;;;24.30;52.50;;;;;;5087226;28;19983;-65
2021/07/15 08:51:09;;;;;;;;;;;24.40;52.70;;;;;;5086512;28;19926;-66
2021/07/15 08:53:35;;;;;;;;;;;24.40;52.70;;;;;;5090115;28;20265;-66
2021/07/15 08:58:46;;;;;;;;;;;24.40;52.80;;;;;;5094902;28;19991;-64
2021/07/15 09:01:12;;;;;;;;;;;24.40;52.80;;;;;;5098935;28;19936;-65
2021/07/15 09:03:38;;;;;;;;;;;24.40;52.30;;;;;;5097766;28;19912;-66
2021/07/15 09:06:03;;;;;;;;;;;24.50;52.20;;;;;;5093275;28;19916;-66
2021/07/15 09:08:29;;;;;;;;;;;24.50;52.10;;;;;;5090034;28;19919;-66
2021/07/15 09:10:55;;;;;;;;;;;24.50;52.10;;;;;;5092228;28;19967;-64
2021/07/15 09:13:20;;;;;;;;;;;24.50;52.20;;;;;;5092191;28;20305;-64
2021/07/15 09:15:47;;;;;;;;;;;24.60;52.10;;;;;;5078037;28;19983;-66
2021/07/15 09:18:13;;;;;;;;;;;24.60;52.00;;;;;;5095804;28;19923;-65
2021/07/15 09:20:38;;;;;;;;;;;24.60;52.00;;;;;;5096010;28;19912;-64
2021/07/15 09:23:05;;;;;;;;;;;24.60;52.00;;;;;;5089974;28;19896;-65
2021/07/15 09:25:36;;;;;;;;;;;24.60;52.00;;;;;;5093618;28;19916;-65
2021/07/15 09:28:03;;;;;;;;;;;24.60;52.00;;;;;;5083483;28;19940;-66
2021/07/15 09:30:28;;;;;;;;;;;24.70;52.10;;;;;;5084303;28;20238;-63
2021/07/15 09:32:56;;;;;;;;;;;24.60;52.10;;;;;;5078590;28;19912;-62
2021/07/15 09:35:31;;;;;;;;;;;24.70;52.10;;;;;;5091005;28;19912;-64
2021/07/15 09:38:07;;;;;;;;;;;24.70;51.70;;;;;;5083158;28;19919;-63
2021/07/15 09:40:37;;;;;;;;;;;24.70;51.90;;;;;;5085359;28;19951;-62
2021/07/15 09:43:22;;;;;;;;;;;24.60;52.10;;;;;;5082070;28;19916;-63
2021/07/15 09:45:53;;;;;;;;;;;24.60;52.00;;;;;;5084942;28;19945;-65
2021/07/15 09:48:21;;;;;;;;;;;24.70;52.30;;;;;;5089610;28;19908;-65
2021/07/15 09:50:48;;;;;;;;;;;24.70;52.10;;;;;;5086190;28;20014;-65
2021/07/15 09:53:14;;;;;;;;;;;24.70;52.00;;;;;;5082544;28;19937;-64
2021/07/15 09:55:40;;;;;;;;;;;24.80;52.20;;;;;;5087151;28;20419;-66
2021/07/15 09:58:06;;;;;;;;;;;24.80;52.10;;;;;;5086037;28;20007;-65
2021/07/15 10:00:39;;;;;;;;;;;24.80;52.00;;;;;;5085502;28;19916;-65
2021/07/15 10:03:05;;;;;;;;;;;24.80;52.10;;;;;;5077519;28;19920;-64
2021/07/15 10:05:30;;;;;;;;;;;24.80;52.20;;;;;;5064427;28;20248;-65
2021/07/15 10:08:02;;;;;;;;;;;24.90;52.30;;;;;;5082768;28;19918;-66
2021/07/15 10:10:28;;;;;;;;;;;24.90;52.20;;;;;;5068653;28;19947;-64
2021/07/15 10:12:53;;;;;;;;;;;24.90;52.10;;;;;;5085569;28;19963;-64
2021/07/15 10:15:19;;;;;;;;;;;24.90;52.00;;;;;;5056385;28;19913;-66
2021/07/15 10:17:45;;;;;;;;;;;24.90;52.10;;;;;;5083275;28;19991;-66
2021/07/15 10:20:15;;;;;;;;;;;24.90;52.30;;;;;;5084223;28;19931;-65
2021/07/15 10:22:40;;;;;;;;;;;25.00;52.30;;;;;;5084224;28;19912;-65
2021/07/15 10:25:07;;;;;;;;;;;25.00;52.30;;;;;;5089746;28;19922;-65
2021/07/15 10:27:33;;;;;;;;;;;25.00;52.30;;;;;;5091513;28;19948;-64
2021/07/15 10:30:00;;;;;;;;;;;25.00;52.20;;;;;;5090945;28;20068;-65
2021/07/15 10:32:26;;;;;;;;;;;25.00;52.00;;;;;;5088018;28;19915;-64
2021/07/15 10:34:54;;;;;;;;;;;25.10;52.00;;;;;;5086745;28;20354;-63
2021/07/15 10:37:20;;;;;;;;;;;25.10;51.90;;;;;;5087949;28;20731;-63
2021/07/15 10:39:46;;;;;;;;;;;25.10;51.80;;;;;;5088209;28;19923;-63
2021/07/15 10:42:12;;;;;;;;;;;25.10;51.80;;;;;;5096154;28;19957;-63
2021/07/15 10:44:40;;;;;;;;;;;25.10;51.70;;;;;;5091270;28;19911;-64
2021/07/15 10:47:06;;;;;;;;;;;25.10;51.60;;;;;;5090230;28;19912;-65
2021/07/15 10:49:33;;;;;;;;;;;25.20;51.70;;;;;;5089126;28;19926;-66
2021/07/15 10:52:01;;;;;;;;;;;25.10;51.60;;;;;;5077680;28;20003;-65
2021/07/15 10:54:27;;;;;;;;;;;25.20;51.60;;;;;;5075652;28;19908;-66
2021/07/15 10:57:02;;;;;;;;;;;25.20;51.50;;;;;;5091108;28;20003;-63
2021/07/15 10:59:31;;;;;;;;;;;25.30;51.60;;;;;;5090939;28;19908;-63
2021/07/15 11:02:01;;;;;;;;;;;25.30;51.50;;;;;;5086873;28;19924;-63
2021/07/15 11:04:29;;;;;;;;;;;25.30;51.50;;;;;;5087528;28;19960;-64
2021/07/15 11:06:57;;;;;;;;;;;25.30;51.60;;;;;;5087678;28;19922;-64
2021/07/15 11:09:22;;;;;;;;;;;25.30;51.60;;;;;;5083667;28;19908;-65
2021/07/15 11:11:48;;;;;;;;;;;25.40;51.70;;;;;;5066830;28;19923;-64
2021/07/15 11:14:34;;;;;;;;;;;25.40;51.60;;;;;;5095609;28;19911;-66
2021/07/15 11:16:59;;;;;;;;;;;25.40;52.10;;;;;;5067569;28;20641;-65
2021/07/15 11:19:43;;;;;;;;;;;25.40;51.50;;;;;;5082770;28;19912;-65
2021/07/15 11:22:09;;;;;;;;;;;25.40;51.50;;;;;;5083905;28;20007;-67
2021/07/15 11:24:34;;;;;;;;;;;25.40;51.50;;;;;;5082844;28;20453;-66
2021/07/15 11:27:20;;;;;;;;;;;25.40;51.50;;;;;;5083872;28;19926;-65
2021/07/15 11:29:47;;;;;;;;;;;25.50;51.60;;;;;;5061123;28;19947;-65
2021/07/15 11:32:28;;;;;;;;;;;25.40;51.50;;;;;;5081685;28;20010;-64
2021/07/15 11:34:55;;;;;;;;;;;25.50;51.50;;;;;;5078612;28;19916;-65
2021/07/15 11:37:36;;;;;;;;;;;25.50;51.50;;;;;;5084321;28;20096;-66
2021/07/15 11:40:04;;;;;;;;;;;25.50;51.50;;;;;;5085044;28;19947;-64
2021/07/15 11:42:33;;;;;;;;;;;25.50;51.40;;;;;;5080464;28;20003;-64
2021/07/15 11:45:09;;;;;;;;;;;25.60;51.40;;;;;;5084381;28;19954;-65
2021/07/15 11:47:50;;;;;;;;;;;25.60;51.40;;;;;;5083814;28;20381;-64
2021/07/15 11:50:33;;;;;;;;;;;25.60;51.30;;;;;;5060149;28;19919;-65
2021/07/15 11:53:18;;;;;;;;;;;25.60;51.40;;;;;;5078671;28;19919;-64
2021/07/15 11:55:45;;;;;;;;;;;25.60;51.30;;;;;;5083306;28;20053;-65
2021/07/15 11:58:29;;;;;;;;;;;25.60;51.30;;;;;;5086500;28;20630;-65
2021/07/15 12:01:13;;;;;;;;;;;25.60;51.10;;;;;;5080663;28;19920;-64
2021/07/15 12:03:55;;;;;;;;;;;25.70;51.00;;;;;;5079756;28;19904;-64
2021/07/15 12:06:20;;;;;;;;;;;25.70;51.10;;;;;;5082674;28;19916;-63
2021/07/15 12:08:47;;;;;;;;;;;25.70;51.10;;;;;;5079960;28;19908;-64
2021/07/15 12:11:12;;;;;;;;;;;25.70;51.00;;;;;;5083481;28;19966;-63
2021/07/15 12:13:38;;;;;;;;;;;25.70;51.10;;;;;;5090712;28;20367;-65
2021/07/15 12:16:05;;;;;;;;;;;25.70;51.00;;;;;;5091669;28;19923;-65
2021/07/15 12:18:35;;;;;;;;;;;25.70;51.00;;;;;;5083134;28;20653;-64
2021/07/15 12:21:01;;;;;;;;;;;25.70;51.00;;;;;;5083604;28;20557;-65
2021/07/15 12:23:34;;;;;;;;;;;25.80;51.20;;;;;;5084784;28;19911;-64
2021/07/15 12:26:01;;;;;;;;;;;25.80;51.30;;;;;;5083976;28;20729;-64
2021/07/15 12:28:29;;;;;;;;;;;25.80;51.50;;;;;;5082083;28;19934;-64
2021/07/15 12:31:02;;;;;;;;;;;25.80;51.60;;;;;;5085029;28;20058;-64
2021/07/15 12:33:35;;;;;;;;;;;25.80;51.30;;;;;;5065215;28;19912;-64
2021/07/15 12:36:07;;;;;;;;;;;25.80;51.30;;;;;;5085461;28;20705;-65
2021/07/15 12:38:32;;;;;;;;;;;25.80;51.20;;;;;;5083198;28;19908;-64
2021/07/15 12:41:05;;;;;;;;;;;25.80;51.30;;;;;;5081490;28;20073;-64
2021/07/15 12:43:54;;;;;;;;;;;25.80;51.20;;;;;;5082379;28;20398;-65
2021/07/15 12:46:20;;;;;;;;;;;25.80;51.10;;;;;;5081475;28;19916;-63
2021/07/15 12:48:47;;;;;;;;;;;25.90;51.30;;;;;;5084001;28;19918;-65
2021/07/15 12:51:12;;;;;;;;;;;25.90;51.30;;;;;;5082348;28;19916;-65
2021/07/15 12:53:42;;;;;;;;;;;25.90;51.40;;;;;;5081440;28;19912;-66
2021/07/15 12:56:08;;;;;;;;;;;25.90;51.50;;;;;;5084444;28;19912;-64
2021/07/15 12:58:33;;;;;;;;;;;25.90;51.60;;;;;;5076836;28;20267;-65
2021/07/15 13:01:01;;;;;;;;;;;25.90;51.50;;;;;;5080969;28;19911;-65
2021/07/15 13:03:26;;;;;;;;;;;25.90;51.60;;;;;;5059703;28;19919;-64
2021/07/15 13:05:52;;;;;;;;;;;25.90;51.60;;;;;;5079213;28;19916;-63
2021/07/15 13:08:24;;;;;;;;;;;25.90;51.40;;;;;;5079617;28;19955;-64
2021/07/15 13:16:18;;;;;;;;;;;26.00;51.30;;;;;;5092757;28;19927;-62
2021/07/15 13:18:44;;;;;;;;;;;26.00;51.40;;;;;;5085301;28;20298;-63
2021/07/15 13:21:09;;;;;;;;;;;26.00;51.40;;;;;;5086557;28;19920;-65
2021/07/15 13:23:39;;;;;;;;;;;26.00;51.40;;;;;;5084883;28;19928;-63
2021/07/15 13:26:11;;;;;;;;;;;26.00;51.40;;;;;;5087815;28;20294;-64
2021/07/15 13:28:37;;;;;;;;;;;26.00;51.40;;;;;;5087293;28;20022;-62
2021/07/15 13:31:10;;;;;;;;;;;26.00;51.40;;;;;;5085471;28;20270;-62
2021/07/15 13:33:40;;;;;;;;;;;26.00;51.40;;;;;;5085509;28;20330;-62
2021/07/15 13:36:05;;;;;;;;;;;25.90;51.40;;;;;;5080815;28;19920;-64
2021/07/15 13:38:38;;;;;;;;;;;25.90;51.30;;;;;;5088281;28;19993;-65
2021/07/15 13:41:20;;;;;;;;;;;25.90;51.40;;;;;;5083148;28;19992;-60
2021/07/15 13:43:45;;;;;;;;;;;25.90;51.40;;;;;;5083531;28;19923;-62
2021/07/15 13:46:11;;;;;;;;;;;25.90;51.40;;;;;;5082722;28;19920;-62
2021/07/15 13:48:40;;;;;;;;;;;25.90;51.40;;;;;;5091985;28;19907;-62
2021/07/15 13:51:08;;;;;;;;;;;25.90;51.40;;;;;;5069313;28;19985;-63
2021/07/15 13:53:34;;;;;;;;;;;25.90;51.50;;;;;;5083345;28;20011;-61
2021/07/15 13:55:59;;;;;;;;;;;25.90;51.50;;;;;;5083881;28;20377;-65
2021/07/15 13:58:25;;;;;;;;;;;25.80;51.50;;;;;;5082561;28;20015;-62
2021/07/15 14:00:54;;;;;;;;;;;25.80;51.50;;;;;;5085413;28;20320;-65
2021/07/15 14:03:20;;;;;;;;;;;25.80;51.50;;;;;;5088506;28;19919;-61
2021/07/15 14:05:47;;;;;;;;;;;25.80;51.50;;;;;;5087607;28;19916;-63
2021/07/15 14:08:13;;;;;;;;;;;25.80;51.50;;;;;;5068038;28;19909;-63
2021/07/15 14:10:38;;;;;;;;;;;25.80;51.60;;;;;;5086484;28;20266;-64
2021/07/15 14:13:04;;;;;;;;;;;25.80;51.60;;;;;;5086523;28;19918;-63
2021/07/15 14:15:32;;;;;;;;;;;25.80;51.60;;;;;;5069505;28;19919;-63
2021/07/15 14:18:00;;;;;;;;;;;25.80;51.60;;;;;;5083032;28;19916;-64
2021/07/15 14:20:26;;;;;;;;;;;25.80;51.70;;;;;;5085924;28;19934;-63
2021/07/15 14:22:51;;;;;;;;;;;25.70;51.60;;;;;;5078780;28;19916;-64
2021/07/15 14:25:17;;;;;;;;;;;25.80;51.70;;;;;;5083599;28;19926;-64
2021/07/15 14:27:44;;;;;;;;;;;25.70;51.60;;;;;;5068835;28;20329;-64